Wetterdaten: Woche 29.04.19 - 05.05.19 (KW18)
Datum Zeit Temp. Aussen Temp. o. S. +5cm Feuchte Auss Luftdruck Regen Sonnenschein Regendauer Solar Windben Empfang
29.04.2019 00:00 6,0 C 4,1 C 3,6 C 88 % 1020,2 hPa 0,0 l/m 0,00 h 0,00 h 0 W/m 0,0 km/h (0 Bft) 96,95 %
29.04.2019 01:00 5,2 C 3,3 C 3,1 C 88 % 1020,5 hPa 0,0 l/m 0,00 h 0,00 h 0 W/m 0,0 km/h (0 Bft) 99,43 %
29.04.2019 02:00 4,5 C 2,9 C 2,7 C 89 % 1020,9 hPa 0,0 l/m 0,00 h 0,00 h 0 W/m 0,0 km/h (0 Bft) 97,22 %
29.04.2019 03:00 4,0 C 2,5 C 2,2 C 91 % 1021,2 hPa 0,0 l/m 0,00 h 0,00 h 0 W/m 0,0 km/h (0 Bft) 97,29 %
29.04.2019 04:00 3,6 C 2,0 C 1,7 C 91 % 1021,4 hPa 0,0 l/m 0,00 h 0,00 h 0 W/m 0,0 km/h (0 Bft) 95,71 %
29.04.2019 05:00 3,1 C 1,5 C 1,4 C 92 % 1021,5 hPa 0,0 l/m 0,00 h 0,00 h 0 W/m 0,0 km/h (0 Bft) 98,73 %
29.04.2019 06:00 2,7 C 1,7 C 1,5 C 92 % 1021,7 hPa 0,0 l/m 0,00 h 0,00 h 20 W/m 0,1 km/h (0 Bft) 96,76 %
29.04.2019 07:00 3,4 C 3,7 C 3,2 C 94 % 1022,1 hPa 0,0 l/m 0,00 h 0,00 h 40 W/m 0,0 km/h (0 Bft) 98,72 %
29.04.2019 08:00 5,4 C 7,8 C 5,5 C 96 % 1022,7 hPa 0,0 l/m 0,47 h 0,00 h 174 W/m 0,9 km/h (0 Bft) 95,16 %
29.04.2019 09:00 9,2 C 18,4 C 16,2 C 97 % 1022,9 hPa 0,0 l/m 1,00 h 0,00 h 457 W/m 1,9 km/h (1 Bft) 99,15 %
29.04.2019 10:00 13,5 C 22,6 C 21,0 C 79 % 1022,9 hPa 0,0 l/m 1,00 h 0,00 h 637 W/m 8,6 km/h (2 Bft) 96,23 %
29.04.2019 11:00 16,2 C 24,0 C 22,9 C 64 % 1022,7 hPa 0,0 l/m 0,97 h 0,00 h 693 W/m 14,1 km/h (3 Bft) 98,29 %
29.04.2019 12:00 16,6 C 21,8 C 21,2 C 63 % 1022,3 hPa 0,0 l/m 0,57 h 0,00 h 621 W/m 16,0 km/h (3 Bft) 98,86 %
29.04.2019 13:00 17,5 C 22,5 C 23,2 C 61 % 1022,0 hPa 0,0 l/m 0,73 h 0,00 h 675 W/m 16,0 km/h (3 Bft) 96,98 %
29.04.2019 14:00 18,2 C 21,9 C 21,8 C 57 % 1021,6 hPa 0,0 l/m 0,73 h 0,00 h 689 W/m 16,7 km/h (3 Bft) 99,57 %
29.04.2019 15:00 17,7 C 19,6 C 17,8 C 57 % 1021,0 hPa 0,0 l/m 0,67 h 0,00 h 476 W/m 18,8 km/h (3 Bft) 97,23 %
29.04.2019 16:00 18,0 C 19,0 C 17,7 C 56 % 1020,5 hPa 0,0 l/m 0,77 h 0,00 h 439 W/m 19,0 km/h (3 Bft) 95,82 %
29.04.2019 17:00 17,2 C 17,6 C 17,1 C 59 % 1020,3 hPa 0,0 l/m 0,93 h 0,00 h 268 W/m 17,4 km/h (3 Bft) 97,95 %
29.04.2019 18:00 16,1 C 15,7 C 15,3 C 62 % 1020,3 hPa 0,0 l/m 0,07 h 0,00 h 136 W/m 19,4 km/h (3 Bft) 98,39 %
29.04.2019 19:00 15,0 C 14,1 C 13,8 C 66 % 1020,3 hPa 0,0 l/m 0,00 h 0,00 h 55 W/m 16,4 km/h (3 Bft) 96,37 %
29.04.2019 20:00 13,9 C 12,7 C 12,4 C 71 % 1020,6 hPa 0,0 l/m 0,00 h 0,00 h 10 W/m 12,4 km/h (3 Bft) 97,05 %
29.04.2019 21:00 13,0 C 11,2 C 10,7 C 78 % 1021,0 hPa 0,0 l/m 0,00 h 0,47 h 0 W/m 10,6 km/h (2 Bft) 98,17 %
29.04.2019 22:00 12,0 C 10,6 C 10,2 C 85 % 1021,3 hPa 0,0 l/m 0,00 h 0,40 h 0 W/m 10,5 km/h (2 Bft) 97,80 %
29.04.2019 23:00 11,3 C 10,4 C 10,1 C 86 % 1021,3 hPa 0,0 l/m 0,00 h 0,00 h 0 W/m 14,2 km/h (3 Bft) 97,36 %
30.04.2019 00:00 10,7 C 10,0 C 9,4 C 85 % 1021,5 hPa 0,0 l/m 0,00 h 0,00 h 0 W/m 10,3 km/h (2 Bft) 97,29 %
30.04.2019 01:00 10,5 C 9,8 C 9,4 C 86 % 1021,3 hPa 0,0 l/m 0,00 h 0,00 h 0 W/m 10,2 km/h (2 Bft) 98,29 %
30.04.2019 02:00 10,3 C 9,4 C 9,4 C 88 % 1021,0 hPa 0,0 l/m 0,00 h 0,00 h 0 W/m 9,3 km/h (2 Bft) 98,29 %
30.04.2019 03:00 10,2 C 9,4 C 9,4 C 89 % 1020,7 hPa 0,0 l/m 0,00 h 0,00 h 0 W/m 8,8 km/h (2 Bft) 95,73 %
30.04.2019 04:00 10,1 C 9,4 C 9,1 C 91 % 1020,7 hPa 0,0 l/m 0,00 h 0,00 h 0 W/m 7,9 km/h (2 Bft) 97,58 %
30.04.2019 05:00 9,9 C 9,4 C 8,9 C 91 % 1020,5 hPa 0,0 l/m 0,00 h 0,00 h 0 W/m 8,7 km/h (2 Bft) 97,62 %
30.04.2019 06:00 9,8 C 8,9 C 8,9 C 92 % 1020,5 hPa 0,0 l/m 0,00 h 0,00 h 12 W/m 8,4 km/h (2 Bft) 98,31 %
30.04.2019 07:00 9,9 C 10,1 C 9,7 C 93 % 1020,6 hPa 0,0 l/m 0,03 h 0,00 h 71 W/m 8,2 km/h (2 Bft) 96,51 %
30.04.2019 08:00 10,4 C 11,0 C 10,6 C 92 % 1020,9 hPa 0,0 l/m 0,00 h 0,00 h 105 W/m 11,0 km/h (2 Bft) 98,22 %
30.04.2019 09:00 11,1 C 13,4 C 12,4 C 86 % 1021,2 hPa 0,0 l/m 0,47 h 0,00 h 224 W/m 10,3 km/h (2 Bft) 98,79 %
30.04.2019 10:00 14,1 C 21,5 C 20,7 C 72 % 1021,3 hPa 0,0 l/m 0,93 h 0,00 h 622 W/m 10,7 km/h (2 Bft) 94,31 %
30.04.2019 11:00 16,0 C 23,5 C 22,8 C 65 % 1021,1 hPa 0,0 l/m 0,87 h 0,00 h 711 W/m 9,3 km/h (2 Bft) 97,72 %
30.04.2019 12:00 17,3 C 24,4 C 23,9 C 64 % 1020,8 hPa 0,0 l/m 0,87 h 0,00 h 759 W/m 14,6 km/h (3 Bft) 96,32 %
30.04.2019 13:00 18,9 C 25,5 C 26,8 C 60 % 1020,3 hPa 0,0 l/m 0,95 h 0,00 h 910 W/m 16,7 km/h (3 Bft) 97,36 %
30.04.2019 14:00 19,3 C 24,2 C 23,8 C 58 % 1019,7 hPa 0,0 l/m 0,93 h 0,00 h 841 W/m 16,8 km/h (3 Bft) 99,50 %
30.04.2019 15:00 19,7 C 22,6 C 19,3 C 57 % 1019,2 hPa 0,0 l/m 0,97 h 0,00 h 732 W/m 13,4 km/h (3 Bft) 97,71 %
30.04.2019 16:00 19,7 C 20,4 C 19,0 C 57 % 1018,7 hPa 0,0 l/m 0,93 h 0,00 h 655 W/m 16,2 km/h (3 Bft) 96,24 %
30.04.2019 17:00 19,0 C 18,3 C 17,7 C 59 % 1018,5 hPa 0,0 l/m 0,97 h 0,00 h 459 W/m 19,3 km/h (3 Bft) 95,75 %
30.04.2019 18:00 17,6 C 16,4 C 15,7 C 64 % 1018,2 hPa 0,0 l/m 0,97 h 0,00 h 289 W/m 19,3 km/h (3 Bft) 98,53 %
30.04.2019 19:00 15,1 C 13,9 C 13,5 C 70 % 1018,3 hPa 0,0 l/m 0,00 h 0,00 h 68 W/m 16,5 km/h (3 Bft) 97,80 %
30.04.2019 20:00 13,5 C 12,0 C 11,8 C 74 % 1018,2 hPa 0,0 l/m 0,00 h 0,00 h 21 W/m 11,1 km/h (2 Bft) 97,05 %
30.04.2019 21:00 12,1 C 10,5 C 10,4 C 79 % 1018,5 hPa 0,0 l/m 0,00 h 0,00 h 0 W/m 11,0 km/h (2 Bft) 98,59 %
30.04.2019 22:00 11,0 C 9,3 C 9,2 C 82 % 1018,5 hPa 0,0 l/m 0,00 h 0,00 h 0 W/m 7,5 km/h (2 Bft) 97,59 %
30.04.2019 23:00 9,9 C 8,3 C 8,3 C 85 % 1018,2 hPa 0,0 l/m 0,00 h 0,00 h 0 W/m 7,6 km/h (2 Bft) 96,65 %
01.05.2019 00:00 9,1 C 7,5 C 7,4 C 87 % 1018,0 hPa 0,0 l/m 0,00 h 0,00 h 0 W/m 3,8 km/h (1 Bft) 96,30 %
01.05.2019 01:00 8,3 C 6,6 C 6,4 C 89 % 1017,7 hPa 0,0 l/m 0,00 h 0,00 h 0 W/m 1,3 km/h (1 Bft) 99,15 %
01.05.2019 02:00 7,6 C 6,1 C 6,0 C 91 % 1017,3 hPa 0,0 l/m 0,00 h 0,00 h 0 W/m 1,3 km/h (1 Bft) 97,30 %
01.05.2019 03:00 6,9 C 5,3 C 5,2 C 92 % 1017,0 hPa 0,0 l/m 0,00 h 0,00 h 0 W/m 0,2 km/h (0 Bft) 96,29 %
01.05.2019 04:00 6,2 C 5,0 C 4,6 C 93 % 1016,8 hPa 0,0 l/m 0,00 h 0,00 h 0 W/m 0,3 km/h (0 Bft) 96,25 %
01.05.2019 05:00 5,8 C 4,4 C 4,1 C 93 % 1016,5 hPa 0,0 l/m 0,00 h 0,00 h 0 W/m 0,1 km/h (0 Bft) 99,20 %
01.05.2019 06:00 6,0 C 5,6 C 5,5 C 95 % 1016,4 hPa 0,0 l/m 0,00 h 0,00 h 10 W/m 2,2 km/h (1 Bft) 96,19 %
01.05.2019 07:00 6,5 C 6,0 C 6,1 C 96 % 1016,6 hPa 0,0 l/m 0,00 h 0,00 h 27 W/m 3,2 km/h (1 Bft) 98,36 %
01.05.2019 08:00 7,1 C 7,0 C 6,9 C 97 % 1016,6 hPa 0,0 l/m 0,00 h 0,00 h 52 W/m 4,1 km/h (1 Bft) 96,01 %
01.05.2019 09:00 7,5 C 7,9 C 7,7 C 97 % 1016,7 hPa 0,0 l/m 0,00 h 0,00 h 88 W/m 3,8 km/h (1 Bft) 97,66 %
01.05.2019 10:00 7,9 C 8,6 C 8,3 C 97 % 1016,8 hPa 0,0 l/m 0,00 h 0,00 h 117 W/m 4,4 km/h (1 Bft) 99,51 %
01.05.2019 11:00 8,6 C 9,6 C 9,2 C 97 % 1016,6 hPa 0,0 l/m 0,00 h 0,00 h 136 W/m 0,2 km/h (0 Bft) 95,30 %
01.05.2019 12:00 9,3 C 10,4 C 9,9 C 96 % 1016,3 hPa 0,0 l/m 0,00 h 0,00 h 197 W/m 3,1 km/h (1 Bft) 97,43 %
01.05.2019 13:00 10,3 C 11,9 C 11,3 C 92 % 1015,9 hPa 0,0 l/m 0,00 h 0,00 h 230 W/m 2,4 km/h (1 Bft) 98,43 %
01.05.2019 14:00 11,6 C 13,2 C 12,5 C 87 % 1015,5 hPa 0,0 l/m 0,03 h 0,00 h 270 W/m 9,1 km/h (2 Bft) 97,38 %
01.05.2019 15:00 13,5 C 17,2 C 14,8 C 81 % 1014,8 hPa 0,0 l/m 0,90 h 0,00 h 549 W/m 9,7 km/h (2 Bft) 98,65 %
01.05.2019 16:00 15,8 C 17,1 C 15,0 C 73 % 1013,9 hPa 0,0 l/m 1,00 h 0,00 h 604 W/m 8,5 km/h (2 Bft) 95,59 %
01.05.2019 17:00 16,6 C 16,5 C 15,2 C 70 % 1013,2 hPa 0,0 l/m 0,87 h 0,00 h 414 W/m 8,6 km/h (2 Bft) 98,86 %
01.05.2019 18:00 16,9 C 16,4 C 14,9 C 68 % 1012,7 hPa 0,0 l/m 0,97 h 0,00 h 297 W/m 7,8 km/h (2 Bft) 94,93 %
01.05.2019 19:00 15,7 C 14,1 C 12,9 C 70 % 1012,3 hPa 0,0 l/m 0,00 h 0,00 h 65 W/m 5,0 km/h (1 Bft) 97,37 %
01.05.2019 20:00 14,1 C 11,8 C 10,5 C 74 % 1012,1 hPa 0,0 l/m 0,00 h 0,00 h 24 W/m 0,3 km/h (0 Bft) 97,86 %
01.05.2019 21:00 12,0 C 9,4 C 8,4 C 80 % 1012,1 hPa 0,0 l/m 0,00 h 0,00 h 0 W/m 0,9 km/h (0 Bft) 97,58 %
01.05.2019 22:00 10,3 C 8,5 C 7,3 C 84 % 1012,2 hPa 0,0 l/m 0,00 h 0,00 h 0 W/m 1,0 km/h (0 Bft) 97,29 %
01.05.2019 23:00 9,2 C 7,6 C 6,7 C 85 % 1012,1 hPa 0,0 l/m 0,00 h 0,00 h 0 W/m 0,1 km/h (0 Bft) 96,65 %
02.05.2019 00:00 8,3 C 6,8 C 6,2 C 87 % 1011,9 hPa 0,0 l/m 0,00 h 0,00 h 0 W/m 0,6 km/h (0 Bft) 97,78 %
02.05.2019 01:00 7,5 C 5,9 C 5,1 C 88 % 1011,6 hPa 0,0 l/m 0,00 h 0,00 h 0 W/m 0,3 km/h (0 Bft) 97,84 %
02.05.2019 02:00 6,7 C 5,4 C 4,6 C 90 % 1011,2 hPa 0,0 l/m 0,00 h 0,00 h 0 W/m 0,0 km/h (0 Bft) 99,45 %
02.05.2019 03:00 6,1 C 5,0 C 4,3 C 92 % 1010,8 hPa 0,0 l/m 0,00 h 0,00 h 0 W/m 0,0 km/h (0 Bft) 94,43 %
02.05.2019 04:00 5,8 C 5,1 C 4,8 C 93 % 1010,6 hPa 0,0 l/m 0,00 h 0,00 h 0 W/m 0,0 km/h (0 Bft) 98,20 %
02.05.2019 05:00 6,0 C 5,4 C 5,1 C 94 % 1010,2 hPa 0,0 l/m 0,00 h 0,00 h 0 W/m 0,3 km/h (0 Bft) 98,76 %
02.05.2019 06:00 6,5 C 6,3 C 6,0 C 95 % 1010,0 hPa 0,0 l/m 0,00 h 0,00 h 14 W/m 0,5 km/h (0 Bft) 97,69 %
02.05.2019 07:00 7,1 C 7,5 C 7,2 C 96 % 1010,1 hPa 0,0 l/m 0,00 h 0,00 h 49 W/m 1,0 km/h (0 Bft) 95,80 %
02.05.2019 08:00 8,1 C 9,5 C 8,9 C 96 % 1010,0 hPa 0,0 l/m 0,00 h 0,00 h 126 W/m 3,8 km/h (1 Bft) 99,07 %
02.05.2019 09:00 9,3 C 10,5 C 9,9 C 92 % 1009,9 hPa 0,0 l/m 0,00 h 0,00 h 173 W/m 8,9 km/h (2 Bft) 98,29 %
02.05.2019 10:00 10,2 C 11,7 C 11,0 C 86 % 1010,0 hPa 0,0 l/m 0,23 h 0,00 h 252 W/m 10,5 km/h (2 Bft) 96,36 %
02.05.2019 11:00 12,0 C 17,1 C 15,8 C 81 % 1009,6 hPa 0,0 l/m 0,83 h 0,00 h 568 W/m 11,0 km/h (2 Bft) 95,85 %
02.05.2019 12:00 14,4 C 17,8 C 17,0 C 74 % 1008,9 hPa 0,0 l/m 0,72 h 0,00 h 469 W/m 11,0 km/h (2 Bft) 98,75 %
02.05.2019 13:00 15,8 C 19,4 C 18,8 C 68 % 1008,3 hPa 0,0 l/m 0,90 h 0,00 h 555 W/m 12,2 km/h (3 Bft) 97,29 %
02.05.2019 14:00 17,2 C 19,9 C 19,4 C 63 % 1007,7 hPa 0,0 l/m 0,80 h 0,00 h 517 W/m 11,9 km/h (2 Bft) 99,51 %
02.05.2019 15:00 16,4 C 15,6 C 15,2 C 68 % 1007,3 hPa 0,2 l/m 0,27 h 0,53 h 183 W/m 15,0 km/h (3 Bft) 96,10 %
02.05.2019 16:00 13,7 C 12,3 C 12,1 C 88 % 1007,0 hPa 0,0 l/m 0,00 h 0,57 h 111 W/m 7,5 km/h (2 Bft) 95,93 %
02.05.2019 17:00 13,3 C 11,8 C 11,3 C 87 % 1006,7 hPa 0,2 l/m 0,00 h 0,50 h 52 W/m 13,1 km/h (3 Bft) 99,71 %
02.05.2019 18:00 11,9 C 10,6 C 10,1 C 91 % 1007,0 hPa 0,4 l/m 0,00 h 0,87 h 56 W/m 14,3 km/h (3 Bft) 98,01 %
02.05.2019 19:00 11,7 C 10,6 C 10,0 C 94 % 1007,1 hPa 0,2 l/m 0,00 h 0,83 h 40 W/m 4,8 km/h (1 Bft) 95,61 %
02.05.2019 20:00 11,5 C 10,0 C 10,0 C 95 % 1007,2 hPa 0,2 l/m 0,00 h 0,33 h 13 W/m 1,4 km/h (1 Bft) 98,43 %
02.05.2019 21:00 11,1 C 9,9 C 9,8 C 95 % 1007,6 hPa 0,0 l/m 0,00 h 0,03 h 4 W/m 4,1 km/h (1 Bft) 97,65 %
02.05.2019 22:00 9,8 C 8,0 C 8,1 C 94 % 1008,1 hPa 0,0 l/m 0,00 h 0,00 h 0 W/m 8,5 km/h (2 Bft) 97,87 %
02.05.2019 23:00 8,4 C 6,8 C 6,8 C 93 % 1008,5 hPa 0,0 l/m 0,00 h 0,00 h 0 W/m 5,6 km/h (1 Bft) 97,79 %
03.05.2019 00:00 7,8 C 6,7 C 6,7 C 94 % 1008,7 hPa 0,0 l/m 0,00 h 0,00 h 0 W/m 3,7 km/h (1 Bft) 95,37 %
03.05.2019 01:00 8,3 C 7,2 C 7,2 C 95 % 1009,0 hPa 0,0 l/m 0,00 h 0,00 h 0 W/m 8,2 km/h (2 Bft) 98,79 %
03.05.2019 02:00 8,3 C 7,2 C 7,2 C 95 % 1009,1 hPa 0,0 l/m 0,00 h 0,10 h 0 W/m 7,3 km/h (2 Bft) 98,86 %
03.05.2019 03:00 8,1 C 6,8 C 6,7 C 95 % 1009,1 hPa 0,0 l/m 0,00 h 0,00 h 0 W/m 2,8 km/h (1 Bft) 94,66 %
03.05.2019 04:00 7,8 C 6,7 C 6,5 C 95 % 1009,4 hPa 0,0 l/m 0,00 h 0,00 h 0 W/m 5,8 km/h (2 Bft) 99,07 %
03.05.2019 05:00 7,2 C 6,1 C 6,1 C 95 % 1009,6 hPa 0,0 l/m 0,00 h 0,00 h 0 W/m 2,2 km/h (1 Bft) 95,64 %
03.05.2019 06:00 7,0 C 6,5 C 6,3 C 96 % 1010,2 hPa 0,0 l/m 0,00 h 0,00 h 11 W/m 7,6 km/h (2 Bft) 97,52 %
03.05.2019 07:00 7,2 C 7,5 C 7,1 C 96 % 1010,9 hPa 0,0 l/m 0,00 h 0,00 h 58 W/m 9,8 km/h (2 Bft) 97,28 %
03.05.2019 08:00 7,7 C 10,5 C 8,8 C 91 % 1011,2 hPa 0,0 l/m 0,40 h 0,00 h 165 W/m 13,0 km/h (3 Bft) 96,36 %
03.05.2019 09:00 9,8 C 14,3 C 13,6 C 78 % 1011,3 hPa 0,0 l/m 0,50 h 0,00 h 324 W/m 12,2 km/h (3 Bft) 97,89 %
03.05.2019 10:00 11,1 C 15,0 C 14,3 C 72 % 1011,3 hPa 0,0 l/m 0,57 h 0,00 h 383 W/m 12,0 km/h (2 Bft) 98,15 %
03.05.2019 11:00 11,5 C 14,5 C 14,1 C 68 % 1011,1 hPa 0,0 l/m 0,30 h 0,00 h 405 W/m 13,6 km/h (3 Bft) 98,20 %
03.05.2019 12:00 12,6 C 16,3 C 15,9 C 61 % 1011,0 hPa 0,0 l/m 0,38 h 0,00 h 484 W/m 16,0 km/h (3 Bft) 98,92 %
03.05.2019 13:00 14,2 C 19,0 C 19,7 C 56 % 1010,8 hPa 0,0 l/m 0,70 h 0,00 h 731 W/m 17,1 km/h (3 Bft) 97,00 %
03.05.2019 14:00 15,2 C 18,7 C 19,0 C 52 % 1010,5 hPa 0,0 l/m 0,87 h 0,00 h 640 W/m 16,6 km/h (3 Bft) 99,16 %
03.05.2019 15:00 14,2 C 15,1 C 14,7 C 53 % 1010,1 hPa 0,0 l/m 0,03 h 0,00 h 308 W/m 15,4 km/h (3 Bft) 95,15 %
03.05.2019 16:00 13,1 C 13,3 C 13,2 C 57 % 1009,9 hPa 0,0 l/m 0,00 h 0,07 h 224 W/m 17,2 km/h (3 Bft) 97,37 %
03.05.2019 17:00 12,1 C 11,9 C 11,9 C 62 % 1009,8 hPa 0,0 l/m 0,00 h 0,10 h 154 W/m 14,6 km/h (3 Bft) 99,57 %
03.05.2019 18:00 11,4 C 11,2 C 11,1 C 68 % 1009,6 hPa 0,0 l/m 0,33 h 0,10 h 159 W/m 12,0 km/h (2 Bft) 96,92 %
03.05.2019 19:00 10,5 C 9,7 C 9,8 C 71 % 1009,4 hPa 0,0 l/m 0,00 h 0,00 h 46 W/m 12,3 km/h (3 Bft) 96,42 %
03.05.2019 20:00 9,7 C 8,7 C 8,8 C 74 % 1009,2 hPa 0,0 l/m 0,00 h 0,10 h 17 W/m 10,6 km/h (2 Bft) 99,43 %
03.05.2019 21:00 9,2 C 8,3 C 8,3 C 77 % 1009,2 hPa 0,0 l/m 0,00 h 0,00 h 0 W/m 8,7 km/h (2 Bft) 97,46 %
03.05.2019 22:00 8,8 C 7,9 C 7,8 C 78 % 1009,0 hPa 0,0 l/m 0,00 h 0,00 h 0 W/m 10,9 km/h (2 Bft) 96,55 %
03.05.2019 23:00 8,4 C 6,5 C 6,4 C 83 % 1008,7 hPa 0,2 l/m 0,00 h 0,90 h 0 W/m 8,8 km/h (2 Bft) 97,79 %
04.05.2019 00:00 7,3 C 5,3 C 5,3 C 88 % 1008,4 hPa 1,0 l/m 0,00 h 1,00 h 0 W/m 8,3 km/h (2 Bft) 96,77 %
04.05.2019 01:00 6,5 C 5,0 C 5,0 C 92 % 1007,9 hPa 0,8 l/m 0,00 h 1,00 h 0 W/m 6,8 km/h (2 Bft) 98,01 %
04.05.2019 02:00 5,7 C 4,2 C 4,4 C 94 % 1007,7 hPa 1,6 l/m 0,00 h 1,00 h 0 W/m 13,2 km/h (3 Bft) 99,57 %
04.05.2019 03:00 4,6 C 3,4 C 3,5 C 94 % 1007,6 hPa 1,6 l/m 0,00 h 1,00 h 0 W/m 11,6 km/h (2 Bft) 95,15 %
04.05.2019 04:00 3,8 C 2,6 C 2,7 C 95 % 1007,7 hPa 1,4 l/m 0,00 h 1,00 h 0 W/m 11,3 km/h (2 Bft) 97,49 %
04.05.2019 05:00 3,2 C 2,2 C 2,2 C 95 % 1007,4 hPa 0,8 l/m 0,00 h 1,00 h 0 W/m 2,1 km/h (1 Bft) 98,45 %
04.05.2019 06:00 3,3 C 2,2 C 2,2 C 96 % 1007,3 hPa 0,0 l/m 0,00 h 0,12 h 8 W/m 1,5 km/h (1 Bft) 97,37 %
04.05.2019 07:00 3,4 C 2,8 C 2,7 C 96 % 1007,7 hPa 0,2 l/m 0,00 h 0,40 h 24 W/m 4,2 km/h (1 Bft) 97,86 %
04.05.2019 08:00 4,2 C 4,4 C 3,9 C 97 % 1007,8 hPa 0,0 l/m 0,13 h 0,00 h 118 W/m 5,7 km/h (1 Bft) 96,44 %
04.05.2019 09:00 5,8 C 8,8 C 7,7 C 97 % 1007,7 hPa 0,0 l/m 0,53 h 0,00 h 341 W/m 10,0 km/h (2 Bft) 97,44 %
04.05.2019 10:00 8,1 C 13,4 C 11,3 C 91 % 1007,6 hPa 0,2 l/m 0,67 h 0,00 h 528 W/m 16,3 km/h (3 Bft) 98,51 %
04.05.2019 11:00 10,2 C 14,7 C 14,2 C 75 % 1007,5 hPa 0,0 l/m 0,53 h 0,23 h 517 W/m 19,2 km/h (3 Bft) 97,72 %
04.05.2019 12:00 9,1 C 14,3 C 14,2 C 77 % 1007,7 hPa 0,0 l/m 0,67 h 0,27 h 621 W/m 16,0 km/h (3 Bft) 99,72 %
04.05.2019 13:00 9,0 C 11,4 C 11,8 C 74 % 1007,9 hPa 0,0 l/m 0,40 h 0,00 h 466 W/m 17,8 km/h (3 Bft) 97,51 %
04.05.2019 14:00 9,1 C 9,7 C 8,9 C 76 % 1008,4 hPa 1,0 l/m 0,50 h 0,40 h 418 W/m 12,1 km/h (2 Bft) 98,50 %
04.05.2019 15:00 8,2 C 8,3 C 7,2 C 86 % 1008,7 hPa 0,4 l/m 0,43 h 0,27 h 330 W/m 10,0 km/h (2 Bft) 98,71 %
04.05.2019 16:00 8,1 C 6,6 C 5,8 C 84 % 1009,0 hPa 2,6 l/m 0,20 h 0,60 h 180 W/m 12,1 km/h (2 Bft) 94,58 %
04.05.2019 17:00 5,8 C 4,8 C 4,6 C 90 % 1009,4 hPa 0,2 l/m 0,17 h 0,27 h 149 W/m 12,8 km/h (3 Bft) 98,74 %
04.05.2019 18:00 7,6 C 7,1 C 6,2 C 91 % 1009,5 hPa 0,0 l/m 1,00 h 0,00 h 355 W/m 17,1 km/h (3 Bft) 98,79 %
04.05.2019 19:00 6,8 C 5,0 C 4,5 C 84 % 1010,8 hPa 0,0 l/m 0,07 h 0,33 h 51 W/m 16,2 km/h (3 Bft) 95,94 %
04.05.2019 20:00 5,2 C 3,6 C 3,4 C 89 % 1011,9 hPa 0,2 l/m 0,00 h 0,10 h 16 W/m 7,7 km/h (2 Bft) 99,08 %
04.05.2019 21:00 4,5 C 2,8 C 2,3 C 90 % 1012,8 hPa 0,0 l/m 0,00 h 0,00 h 0 W/m 1,9 km/h (1 Bft) 97,65 %
04.05.2019 22:00 3,7 C 2,2 C 2,1 C 91 % 1013,7 hPa 0,0 l/m 0,00 h 0,00 h 0 W/m 2,5 km/h (1 Bft) 96,87 %
04.05.2019 23:00 3,1 C 1,8 C 1,5 C 93 % 1014,3 hPa 0,0 l/m 0,00 h 0,00 h 0 W/m 1,5 km/h (1 Bft) 95,69 %
05.05.2019 00:00 2,6 C 1,7 C 1,3 C 94 % 1014,9 hPa 0,0 l/m 0,00 h 0,00 h 0 W/m 2,0 km/h (1 Bft) 95,63 %
05.05.2019 01:00 2,2 C 1,1 C 0,8 C 94 % 1015,2 hPa 0,0 l/m 0,00 h 0,00 h 0 W/m 0,0 km/h (0 Bft) 96,79 %
05.05.2019 02:00 1,6 C 0,6 C 0,2 C 94 % 1015,4 hPa 0,0 l/m 0,00 h 0,00 h 0 W/m 0,0 km/h (0 Bft) 98,86 %
05.05.2019 03:00 1,1 C 0,0 C -0,3 C 94 % 1015,6 hPa 0,0 l/m 0,00 h 0,00 h 0 W/m 0,2 km/h (0 Bft) 96,62 %
05.05.2019 04:00 1,0 C 0,7 C 0,3 C 95 % 1015,8 hPa 0,0 l/m 0,00 h 0,00 h 0 W/m 0,4 km/h (0 Bft) 96,38 %
05.05.2019 05:00 1,2 C 0,7 C 0,3 C 95 % 1015,9 hPa 0,0 l/m 0,00 h 0,00 h 0 W/m 0,6 km/h (0 Bft) 99,27 %
05.05.2019 06:00 1,9 C 1,7 C 1,4 C 96 % 1016,3 hPa 0,0 l/m 0,00 h 0,03 h 15 W/m 3,0 km/h (1 Bft) 97,52 %
05.05.2019 07:00 2,8 C 3,2 C 2,5 C 96 % 1016,8 hPa 0,0 l/m 0,00 h 0,00 h 58 W/m 2,7 km/h (1 Bft) 95,73 %
05.05.2019 08:00 4,1 C 6,1 C 4,3 C 97 % 1017,4 hPa 0,0 l/m 0,20 h 0,00 h 145 W/m 10,2 km/h (2 Bft) 99,50 %
05.05.2019 09:00 6,8 C 12,9 C 11,8 C 95 % 1017,6 hPa 0,0 l/m 0,93 h 0,00 h 439 W/m 18,8 km/h (3 Bft) 98,01 %
05.05.2019 10:00 8,7 C 10,9 C 10,6 C 82 % 1017,7 hPa 0,0 l/m 0,27 h 0,00 h 272 W/m 19,5 km/h (3 Bft) 96,37 %
05.05.2019 11:00 10,1 C 15,2 C 14,6 C 75 % 1017,8 hPa 0,0 l/m 0,57 h 0,00 h 515 W/m 17,1 km/h (3 Bft) 95,44 %
05.05.2019 12:00 10,4 C 15,5 C 15,1 C 75 % 1018,1 hPa 0,2 l/m 0,63 h 0,20 h 640 W/m 16,5 km/h (3 Bft) 96,90 %
05.05.2019 13:00 13,5 C 19,2 C 20,4 C 61 % 1017,9 hPa 0,0 l/m 0,67 h 0,00 h 700 W/m 19,4 km/h (3 Bft) 95,73 %
05.05.2019 14:00 12,2 C 15,6 C 12,9 C 68 % 1018,2 hPa 0,0 l/m 0,60 h 0,30 h 644 W/m 20,5 km/h (4 Bft) 98,01 %
05.05.2019 15:00 11,8 C 12,5 C 11,4 C 69 % 1018,3 hPa 0,0 l/m 0,27 h 0,37 h 319 W/m 17,6 km/h (3 Bft) 98,30 %
05.05.2019 16:00 12,3 C 13,6 C 12,6 C 62 % 1018,0 hPa 0,0 l/m 0,70 h 0,00 h 478 W/m 20,1 km/h (4 Bft) 97,37 %
05.05.2019 17:00 11,0 C 10,8 C 10,4 C 65 % 1018,4 hPa 0,0 l/m 0,03 h 0,00 h 180 W/m 18,0 km/h (3 Bft) 98,93 %
05.05.2019 18:00 10,8 C 11,0 C 10,2 C 66 % 1018,3 hPa 0,0 l/m 0,63 h 0,00 h 233 W/m 17,1 km/h (3 Bft) 96,70 %
05.05.2019 19:00 10,3 C 9,5 C 9,0 C 67 % 1018,3 hPa 0,0 l/m 0,10 h 0,00 h 73 W/m 15,1 km/h (3 Bft) 97,65 %
05.05.2019 20:00 9,2 C 7,9 C 7,5 C 70 % 1018,5 hPa 0,0 l/m 0,00 h 0,00 h 25 W/m 8,4 km/h (2 Bft) 97,93 %
05.05.2019 21:00 7,9 C 6,4 C 6,3 C 74 % 1018,9 hPa 0,0 l/m 0,00 h 0,00 h 5 W/m 10,5 km/h (2 Bft) 98,36 %
05.05.2019 22:00 6,8 C 5,2 C 4,9 C 77 % 1019,3 hPa 0,0 l/m 0,00 h 0,00 h 0 W/m 5,6 km/h (1 Bft) 95,30 %
05.05.2019 23:00 5,6 C 3,9 C 3,6 C 80 % 1019,5 hPa 0,0 l/m 0,00 h 0,00 h 0 W/m 3,5 km/h (1 Bft) 97,58 %
Min-Datum _ 05.05.19 05.05.19 05.05.19 03.05.19 02.05.19 - - - - 29.04.19 05.05.19
_ Min-Zeit 03:52 02:56 03:00 14:50 16:54 - - - - 00:00 00:02
Minimum _ 0,9 C 0,0 C -0,6 C 49 % 1006,6 hPa - - - - 0,0 km/h (0 Bft) 10,53 %
Max-Datum _ 30.04.19 30.04.19 30.04.19 29.04.19 29.04.19 04.05.19 29.04.19 04.05.19 03.05.19 04.05.19 29.04.19
_ Max-Zeit 15:52 12:42 13:34 09:18 10:02 16:48 12:08 05:10 13:46 13:04 00:20
Maximum _ 20,1 C 27,2 C 28,3 C 98 % 1023,1 hPa 2,6 l/m 0,07 h 0,08 h 1110 W/m 41,8 km/h
N (6 Bft)
100,00 %
Durchschnitt _ 9,7 C 10,2 C 9,7 C 82 % 1014,6 hPa #13,6 l/m #39:17 h #15:51 h 291 W/m 8,7 km/h (2 Bft) 97,46 %
© 2019 W. Hausmann